Istrana, Italy

8:50 PM CET en Diciembre 02, 2016 (GMT +0100)
Strada di Canizzano | | Change Station

Alt 59 ft 45.64 °N, 12.20 °E | Updated 4 minutes ago

Scattered Clouds
Nubes dispersas
46.9 ° F
Sensación térmica 44 ° F
N
6.8
Viento Variable Viento desde SO
Gusts 13.0 mph

Hoy
Alta -- | Baja -- ° F
--% Posibilidad de precipitaciones
Ayer
Alta -- | Baja -- ° F
Precip. -- pul
Presión 30.01 pul
Visibilidad 5.0 Millas
Nubes Nubes dispersas 3000 ft
Vientos helados 44 ° F
Punto de rocío 39 ° F
Humedad 74%
Precipitaciones 0.00 pul
Espesor de la nieve No disponible.
7:33 AM 4:28 PM
Creciente, 10% visible
METAR LIPH 021920Z 02003KT 350V050 8000 SCT030 07/03 Q1016
Presión 30.01 pul
Visibilidad 5.0 Millas
Nubes Nubes dispersas 3000 ft
Vientos helados 44 ° F
Punto de rocío 39 ° F
Humedad 74%
Precipitaciones 0.00 pul
Espesor de la nieve No disponible.
7:33 AM 4:28 PM
Creciente, 10% visible
METAR LIPH 021920Z 02003KT 350V050 8000 SCT030 07/03 Q1016

10-Day Weather Forecast

×

Almanac

Astronomía

Dec. 02, 2016 Salida Puesta
Hora real
Crepúsculo civil
Crepúsculo náutico
Crepúsculo astronómico
Luna
Horas de luz
Horas de luz
Tomorrow will be .
, % of the Moon is Illuminated

Extremos de hoy

Máximos del país Bajas del país

Community

WunderPhotos

Upload Photos

1,955,344 ¡fotos cargadas!

WunderBlog® & News

Nearby

Calidad del aire

  Calidad del aire Índice AQ Contaminante
Not available.

Grosos de nieve

Estación Profundido Altura

Actividad de terremotos

Ciudad Distance Mag. Tiempo y dato
Magnitud mínima muestra es 2,5.

Temperaturas de aguas costeras

Lugar Temperatura

Stations

Estaciones meteorológicas cercanas

Ubicación de la estación Temp. Vientos helados Punto de rocío Humedad Viento Precip. Alt Actualizado Tipo